Time;durP1;ratioP1;P1;durP2;ratioP2;P2;SDS_P1;SDS_P2;PMS_P1;PMS_P2;Temp;Humidity;BMP_temperature;BMP_pressure;BME280_temperature;BME280_humidity;BME280_pressure;Samples;Min_cycle;Max_cycle;Signal;HPM_P1;HPM_P2
2023/07/21 00:01:04;;;;;;;3.90;1.80;;;;;;;17.90;100.00;99610.73;91225;1269;138803;-76
2023/07/21 00:03:06;;;;;;;1.70;1.40;;;;;;;17.83;100.00;99614.39;91109;1272;22301;-76
2023/07/21 00:05:10;;;;;;;1.40;1.30;;;;;;;17.77;100.00;99610.47;91084;1271;138846;-76
2023/07/21 00:07:14;;;;;;;1.40;1.40;;;;;;;17.73;100.00;99616.91;91368;1269;23072;-75
2023/07/21 00:09:20;;;;;;;1.50;1.40;;;;;;;17.72;100.00;99618.13;91187;1269;138014;-78
2023/07/21 00:11:24;;;;;;;1.20;1.20;;;;;;;17.70;100.00;99620.86;91058;1277;22389;-75
2023/07/21 00:13:34;;;;;;;1.20;1.10;;;;;;;17.71;100.00;99623.73;91025;1271;139156;-74
2023/07/21 00:15:46;;;;;;;12.70;1.50;;;;;;;17.70;100.00;99626.41;91197;1269;22897;-76
2023/07/21 00:17:50;;;;;;;1.30;0.90;;;;;;;17.67;100.00;99629.34;91029;1271;139023;-76
2023/07/21 00:19:52;;;;;;;1.10;1.10;;;;;;;17.66;100.00;99632.19;91262;1272;23111;-76
2023/07/21 00:21:55;;;;;;;1.60;1.50;;;;;;;17.65;100.00;99633.36;91081;1275;137527;-74
2023/07/21 00:24:04;;;;;;;1.40;1.30;;;;;;;17.63;100.00;99634.30;91141;1271;22318;-75
2023/07/21 00:26:07;;;;;;;1.60;1.10;;;;;;;17.59;100.00;99633.77;91323;1270;22343;-75
2023/07/21 00:28:09;;;;;;;1.70;1.10;;;;;;;17.55;100.00;99633.58;91263;1272;138687;-75
2023/07/21 00:30:11;;;;;;;1.70;1.40;;;;;;;17.53;100.00;99636.98;91360;1269;22474;-77
2023/07/21 00:32:17;;;;;;;1.40;0.80;;;;;;;17.48;100.00;99632.77;91212;1271;138035;-73
2023/07/21 00:34:24;;;;;;;7.70;1.20;;;;;;;17.44;100.00;99635.12;91155;1272;22391;-76
2023/07/21 00:36:26;;;;;;;0.80;0.80;;;;;;;17.49;100.00;99641.48;91019;1271;138912;-73
2023/07/21 00:38:29;;;;;;;2.80;1.30;;;;;;;17.53;100.00;99635.16;91104;1271;22330;-75
2023/07/21 00:40:33;;;;;;;1.40;1.00;;;;;;;17.55;100.00;99635.84;91076;1260;139338;-73
2023/07/21 00:42:38;;;;;;;2.00;0.90;;;;;;;17.57;100.00;99632.90;91080;1261;22248;-71
2023/07/21 00:44:40;;;;;;;2.10;1.00;;;;;;;17.55;100.00;99627.11;90974;1272;138380;-76
2023/07/21 00:46:42;;;;;;;1.20;0.90;;;;;;;17.47;100.00;99617.20;91184;1270;22245;-72
2023/07/21 00:48:44;;;;;;;2.00;1.10;;;;;;;17.48;100.00;99621.79;91113;1272;140757;-70
2023/07/21 00:50:54;;;;;;;1.10;1.00;;;;;;;17.39;100.00;99618.45;91136;1278;22362;-72
2023/07/21 00:52:58;;;;;;;2.50;1.50;;;;;;;17.51;100.00;99638.53;91049;1260;139169;-71
2023/07/21 00:55:03;;;;;;;1.30;0.90;;;;;;;17.47;100.00;99633.91;91111;1271;22260;-73
2023/07/21 00:57:05;;;;;;;1.10;0.90;;;;;;;17.46;100.00;99628.77;91014;1278;139444;-76
2023/07/21 00:59:07;;;;;;;0.80;0.60;;;;;;;17.45;100.00;99628.39;91234;1272;22214;-76
2023/07/21 01:01:09;;;;;;;1.30;1.30;;;;;;;17.42;100.00;99631.68;91114;1272;138276;-77
2023/07/21 01:03:16;;;;;;;2.00;0.60;;;;;;;17.37;100.00;99634.59;91240;1272;22448;-77
2023/07/21 01:05:18;;;;;;;0.60;0.60;;;;;;;17.29;100.00;99637.89;91205;1270;137918;-75
2023/07/21 01:07:20;;;;;;;0.70;0.70;;;;;;;17.27;100.00;99635.17;91357;1270;22293;-83
2023/07/21 01:09:23;;;;;;;1.20;1.10;;;;;;;17.26;100.00;99630.20;91156;1270;140379;-75
2023/07/21 01:11:26;;;;;;;1.00;1.00;;;;;;;17.24;100.00;99635.34;91147;1271;22325;-74
2023/07/21 01:13:31;;;;;;;1.10;0.80;;;;;;;17.24;100.00;99637.70;91117;1270;138046;-75
2023/07/21 01:15:37;;;;;;;1.10;0.90;;;;;;;17.28;100.00;99637.34;91299;1270;22523;-75
2023/07/21 01:17:40;;;;;;;1.00;0.70;;;;;;;17.25;100.00;99640.74;91012;1264;138460;-75
2023/07/21 01:19:44;;;;;;;1.00;1.00;;;;;;;17.20;100.00;99639.98;91246;1270;22469;-77
2023/07/21 01:21:59;;;;;;;2.40;0.90;;;;;;;17.15;100.00;99641.43;91271;1272;137836;-74
2023/07/21 01:24:09;;;;;;;1.90;0.90;;;;;;;17.08;100.00;99641.86;91390;1270;22484;-75
2023/07/21 01:26:12;;;;;;;1.00;0.70;;;;;;;17.07;100.00;99644.27;91373;1273;22229;-75
2023/07/21 01:28:16;;;;;;;1.30;0.80;;;;;;;17.15;100.00;99644.11;91187;1269;138952;-76
2023/07/21 01:30:19;;;;;;;1.00;1.00;;;;;;;17.20;100.00;99647.73;91280;1269;22383;-77
2023/07/21 01:32:25;;;;;;;1.30;1.20;;;;;;;17.18;100.00;99653.31;91250;1272;139647;-74
2023/07/21 01:34:30;;;;;;;1.50;1.40;;;;;;;17.13;100.00;99657.73;91150;1276;22889;-72
2023/07/21 01:36:32;;;;;;;;;;;;;;;17.16;100.00;99657.52;91270;1269;139392;-73
2023/07/21 01:38:37;;;;;;;2.80;1.00;;;;;;;17.11;100.00;99664.52;91181;1261;22296;-75
2023/07/21 01:40:39;;;;;;;0.90;0.90;;;;;;;17.05;100.00;99667.72;91025;1272;139768;-74
2023/07/21 01:42:44;;;;;;;1.70;1.40;;;;;;;17.06;100.00;99669.45;91328;1269;23120;-72
2023/07/21 01:44:47;;;;;;;1.00;1.00;;;;;;;17.10;100.00;99673.92;91072;1271;139761;-71
2023/07/21 01:46:49;;;;;;;1.50;1.30;;;;;;;17.09;100.00;99673.87;91327;1270;22125;-71
2023/07/21 01:48:51;;;;;;;2.30;1.00;;;;;;;17.07;100.00;99674.65;91059;1272;138609;-70
2023/07/21 01:50:55;;;;;;;1.00;1.00;;;;;;;17.06;100.00;99674.52;91055;1261;22927;-72
2023/07/21 01:53:00;;;;;;;6.60;1.30;;;;;;;17.04;100.00;99672.34;91194;1269;138960;-72
2023/07/21 01:55:30;;;;;;;1.50;0.80;;;;;;;17.00;100.00;99677.45;91113;1274;22267;-75
2023/07/21 01:57:36;;;;;;;1.20;0.90;;;;;;;17.01;100.00;99681.29;91021;1273;140269;-76
2023/07/21 01:59:40;;;;;;;0.90;0.90;;;;;;;17.01;100.00;99687.27;91357;1269;23133;-75
2023/07/21 02:01:42;;;;;;;3.50;1.20;;;;;;;17.02;100.00;99691.15;91083;1268;140063;-75
2023/07/21 02:03:47;;;;;;;0.60;0.60;;;;;;;17.00;100.00;99689.62;91087;1272;22614;-75
2023/07/21 02:05:49;;;;;;;1.00;0.70;;;;;;;17.03;100.00;99689.30;91037;1266;137081;-75
2023/07/21 02:07:51;;;;;;;2.50;1.20;;;;;;;17.00;100.00;99688.31;91187;1273;22214;-74
2023/07/21 02:09:53;;;;;;;1.80;0.70;;;;;;;16.92;100.00;99687.92;91043;1271;138046;-76
2023/07/21 02:11:55;;;;;;;1.00;1.00;;;;;;;16.87;100.00;99693.19;91087;1258;22262;-74
2023/07/21 02:14:06;;;;;;;4.90;1.20;;;;;;;16.82;100.00;99693.23;91100;1272;23132;-76
2023/07/21 02:16:07;;;;;;;7.30;1.50;;;;;;;16.81;100.00;99698.98;91029;1275;138482;-75
2023/07/21 02:18:09;;;;;;;1.30;0.90;;;;;;;16.77;100.00;99699.08;91215;1276;22369;-73
2023/07/21 02:20:11;;;;;;;0.70;0.70;;;;;;;16.77;100.00;99707.42;91154;1273;138731;-74
2023/07/21 02:22:12;;;;;;;2.10;0.70;;;;;;;16.86;100.00;99710.13;91105;1268;22500;-71
2023/07/21 02:24:14;;;;;;;1.10;1.00;;;;;;;16.90;100.00;99709.61;90986;1261;138762;-71
2023/07/21 02:26:16;;;;;;;1.30;0.70;;;;;;;16.90;100.00;99713.85;91195;1271;22339;-70
2023/07/21 02:28:18;;;;;;;1.90;0.70;;;;;;;16.93;100.00;99716.27;91112;1271;138256;-74
2023/07/21 02:30:20;;;;;;;1.30;1.20;;;;;;;16.98;100.00;99716.34;91178;1270;23682;-72
2023/07/21 02:32:22;;;;;;;2.10;0.60;;;;;;;16.99;100.00;99721.46;91290;1276;138322;-73
2023/07/21 02:34:24;;;;;;;4.10;1.10;;;;;;;16.99;100.00;99723.95;91166;1268;22226;-72
2023/07/21 02:36:25;;;;;;;1.90;1.40;;;;;;;17.00;100.00;99728.86;90997;1271;140274;-73
2023/07/21 02:38:28;;;;;;;2.20;0.90;;;;;;;16.97;100.00;99726.94;91079;1275;22481;-73
2023/07/21 02:40:31;;;;;;;1.80;1.00;;;;;;;16.98;100.00;99729.52;91196;1272;138012;-74
2023/07/21 02:42:32;;;;;;;0.90;0.60;;;;;;;16.98;100.00;99728.89;91315;1269;22393;-74
2023/07/21 02:44:35;;;;;;;0.90;0.90;;;;;;;16.97;100.00;99735.55;91228;1273;140083;-76
2023/07/21 02:46:37;;;;;;;0.90;0.90;;;;;;;16.97;100.00;99736.46;91354;1272;22201;-74
2023/07/21 02:48:39;;;;;;;2.30;1.30;;;;;;;16.96;100.00;99738.55;91056;1272;139812;-74
2023/07/21 02:50:41;;;;;;;3.60;1.30;;;;;;;16.93;100.00;99741.69;91161;1270;22155;-73
2023/07/21 02:52:43;;;;;;;1.30;1.00;;;;;;;16.91;100.00;99742.45;91060;1271;138542;-75
2023/07/21 02:54:44;;;;;;;1.00;1.00;;;;;;;16.87;100.00;99747.51;91136;1260;22327;-76
2023/07/21 02:56:46;;;;;;;1.40;1.30;;;;;;;16.86;100.00;99751.75;91100;1273;137962;-75
2023/07/21 02:58:53;;;;;;;1.50;1.40;;;;;;;16.89;100.00;99754.64;91144;1262;22153;-75
2023/07/21 03:00:55;;;;;;;2.60;1.80;;;;;;;16.86;100.00;99755.73;91018;1262;139335;-76
2023/07/21 03:02:59;;;;;;;2.00;1.50;;;;;;;16.82;100.00;99759.41;91146;1272;23132;-74
2023/07/21 03:05:04;;;;;;;1.60;1.50;;;;;;;16.83;100.00;99757.76;91058;1268;137988;-75
2023/07/21 03:07:06;;;;;;;1.40;1.30;;;;;;;16.85;100.00;99759.69;91151;1271;22535;-74
2023/07/21 03:09:08;;;;;;;1.50;1.40;;;;;;;16.85;100.00;99762.38;90991;1272;138270;-73
2023/07/21 03:11:13;;;;;;;2.00;1.40;;;;;;;16.83;100.00;99763.10;91147;1260;22233;-75
2023/07/21 03:13:28;;;;;;;1.90;1.80;;;;;;;16.80;100.00;99761.61;91044;1268;138242;-74
2023/07/21 03:15:30;;;;;;;1.90;1.80;;;;;;;16.82;100.00;99764.26;91165;1259;22906;-75
2023/07/21 03:17:41;;;;;;;1.90;1.80;;;;;;;16.89;100.00;99758.14;91117;1272;139009;-73
2023/07/21 03:19:43;;;;;;;1.60;1.50;;;;;;;16.91;100.00;99755.44;91173;1273;22527;-74
2023/07/21 03:21:45;;;;;;;4.10;1.50;;;;;;;16.89;100.00;99765.84;91084;1272;137848;-74
2023/07/21 03:23:47;;;;;;;2.10;2.00;;;;;;;16.90;100.00;99765.98;91307;1270;23219;-75
2023/07/21 03:25:54;;;;;;;2.10;1.90;;;;;;;16.92;100.00;99768.25;90986;1274;139055;-74
2023/07/21 03:27:56;;;;;;;4.00;1.60;;;;;;;16.91;100.00;99768.23;91194;1268;22232;-74
2023/07/21 03:29:58;;;;;;;2.00;1.80;;;;;;;16.90;100.00;99769.80;91066;1274;140328;-71
2023/07/21 03:32:00;;;;;;;1.90;1.80;;;;;;;16.90;100.00;99772.79;91157;1260;22321;-73
2023/07/21 03:34:02;;;;;;;2.70;2.30;;;;;;;16.91;100.00;99775.52;91030;1273;22237;-73
2023/07/21 03:36:05;;;;;;;2.20;2.10;;;;;;;16.96;100.00;99774.89;91250;1258;138448;-73
2023/07/21 03:38:07;;;;;;;3.40;2.40;;;;;;;16.96;100.00;99779.31;91206;1259;22252;-72
2023/07/21 03:40:10;;;;;;;4.20;2.50;;;;;;;16.99;100.00;99780.70;91050;1274;139106;-78
2023/07/21 03:42:12;;;;;;;2.00;1.90;;;;;;;17.02;100.00;99785.71;91229;1277;23110;-72
2023/07/21 03:44:14;;;;;;;2.50;1.90;;;;;;;17.15;100.00;99791.20;91268;1270;140616;-73
2023/07/21 03:46:17;;;;;;;2.00;1.90;;;;;;;17.25;100.00;99795.66;91172;1267;22374;-77
2023/07/21 03:48:39;;;;;;;2.50;2.20;;;;;;;17.36;100.00;99797.11;90969;1274;140302;-72
2023/07/21 03:50:42;;;;;;;2.10;2.00;;;;;;;17.40;100.00;99796.15;91176;1260;22303;-72
2023/07/21 03:52:44;;;;;;;2.80;2.60;;;;;;;17.42;100.00;99795.26;91079;1261;138390;-72
2023/07/21 03:54:48;;;;;;;1.80;1.70;;;;;;;17.43;100.00;99799.48;91201;1261;22467;-74
2023/07/21 03:56:50;;;;;;;2.30;2.10;;;;;;;17.43;100.00;99792.73;90945;1273;139707;-73
2023/07/21 03:58:55;;;;;;;3.90;2.30;;;;;;;17.43;100.00;99794.31;91351;1274;22319;-73
2023/07/21 04:01:01;;;;;;;3.10;2.10;;;;;;;17.48;100.00;99798.15;91035;1270;138151;-74
2023/07/21 04:03:03;;;;;;;3.10;2.50;;;;;;;17.49;100.00;99801.58;91055;1272;22205;-72
2023/07/21 04:05:05;;;;;;;2.30;2.00;;;;;;;17.51;100.00;99803.02;90987;1258;138154;-73
2023/07/21 04:07:08;;;;;;;2.60;2.40;;;;;;;17.51;100.00;99804.67;91323;1269;22306;-73
2023/07/21 04:09:13;;;;;;;5.00;2.20;;;;;;;17.54;100.00;99803.74;91231;1269;139219;-72
2023/07/21 04:11:14;;;;;;;2.30;2.10;;;;;;;17.58;100.00;99809.41;91347;1271;22200;-72
2023/07/21 04:13:16;;;;;;;2.80;2.50;;;;;;;17.68;100.00;99809.70;91239;1269;139600;-72
2023/07/21 04:15:18;;;;;;;2.10;2.00;;;;;;;17.74;100.00;99806.35;91368;1269;22449;-72
2023/07/21 04:17:19;;;;;;;1.90;1.70;;;;;;;17.78;100.00;99808.11;91217;1268;138177;-71
2023/07/21 04:19:21;;;;;;;1.90;1.80;;;;;;;17.78;100.00;99814.11;91294;1268;22462;-72
2023/07/21 04:21:23;;;;;;;2.20;2.10;;;;;;;17.79;100.00;99823.86;91130;1275;138473;-72
2023/07/21 04:23:25;;;;;;;2.10;1.70;;;;;;;17.83;100.00;99828.79;91194;1268;22959;-71
2023/07/21 04:25:27;;;;;;;1.80;1.70;;;;;;;17.88;100.00;99831.30;91105;1259;141150;-72
2023/07/21 04:27:31;;;;;;;2.30;2.20;;;;;;;17.88;100.00;99837.35;91374;1269;22288;-72
2023/07/21 04:29:33;;;;;;;5.90;2.10;;;;;;;17.87;100.00;99840.36;91080;1270;138271;-71
2023/07/21 04:31:37;;;;;;;2.30;2.20;;;;;;;17.96;100.00;99841.23;91212;1272;22313;-72
2023/07/21 04:33:42;;;;;;;;;;;;;;;18.10;100.00;99846.86;91145;1269;138300;-71
2023/07/21 04:35:47;;;;;;;2.70;2.50;;;;;;;18.19;100.00;99850.81;91363;1272;22133;-71
2023/07/21 04:37:55;;;;;;;3.30;2.10;;;;;;;18.24;100.00;99848.98;91047;1275;137707;-71
2023/07/21 04:40:04;;;;;;;2.20;2.10;;;;;;;18.23;100.00;99854.52;91134;1270;22246;-72
2023/07/21 04:42:06;;;;;;;1.90;1.70;;;;;;;18.19;100.00;99852.70;91213;1270;22369;-70
2023/07/21 04:44:08;;;;;;;2.80;1.80;;;;;;;18.21;100.00;99856.98;91057;1261;138691;-70
2023/07/21 04:46:10;;;;;;;2.40;1.90;;;;;;;18.40;100.00;99859.64;91195;1261;22191;-69
2023/07/21 04:48:13;;;;;;;1.90;1.80;;;;;;;18.66;100.00;99860.52;91009;1270;138254;-71
2023/07/21 04:50:16;;;;;;;3.80;2.40;;;;;;;18.89;100.00;99862.02;91166;1261;22226;-71
2023/07/21 04:52:18;;;;;;;2.30;2.20;;;;;;;18.96;100.00;99858.59;91081;1271;138421;-71
2023/07/21 04:54:20;;;;;;;2.40;2.10;;;;;;;18.94;100.00;99862.36;91199;1271;22270;-71
2023/07/21 04:56:22;;;;;;;1.90;1.80;;;;;;;18.98;100.00;99862.60;91057;1270;138460;-71
2023/07/21 04:58:27;;;;;;;1.70;1.60;;;;;;;19.14;100.00;99856.11;91194;1273;23762;-71
2023/07/21 05:00:29;;;;;;;3.00;1.50;;;;;;;19.37;100.00;99858.42;91290;1269;138327;-73
2023/07/21 05:02:31;;;;;;;1.90;1.70;;;;;;;19.64;100.00;99853.38;91227;1270;22127;-71
2023/07/21 05:04:33;;;;;;;1.70;1.60;;;;;;;19.73;100.00;99856.58;91093;1266;139119;-71
2023/07/21 05:06:36;;;;;;;1.80;1.70;;;;;;;19.66;100.00;99859.02;91193;1268;22150;-63
2023/07/21 05:08:38;;;;;;;2.30;2.00;;;;;;;19.50;100.00;99862.67;91047;1270;138367;-63
2023/07/21 05:10:40;;;;;;;3.70;3.00;;;;;;;19.49;100.00;99865.38;91156;1272;22241;-64
2023/07/21 05:12:47;;;;;;;5.50;5.00;;;;;;;19.56;100.00;99870.06;91152;1260;138352;-65
2023/07/21 05:15:07;;;;;;;2.90;2.70;;;;;;;19.71;100.00;99871.16;91210;1275;22320;-64
2023/07/21 05:17:13;;;;;;;2.90;2.70;;;;;;;19.80;100.00;99875.30;91005;1261;139228;-64
2023/07/21 05:19:22;;;;;;;2.80;2.60;;;;;;;19.77;100.00;99878.03;91296;1275;22364;-64
2023/07/21 05:21:48;;;;;;;3.20;2.60;;;;;;;19.67;100.00;99883.46;91200;1271;140173;-65
2023/07/21 05:24:09;;;;;;;3.20;2.90;;;;;;;19.54;100.00;99882.44;91063;1275;139276;-64
2023/07/21 05:26:11;;;;;;;2.80;2.60;;;;;;;19.50;100.00;99886.62;91184;1260;22979;-64
2023/07/21 05:28:13;;;;;;;4.50;3.30;;;;;;;19.51;100.00;99888.52;91071;1271;139089;-64
2023/07/21 05:30:21;;;;;;;2.10;2.00;;;;;;;19.53;100.00;99892.59;91161;1271;23001;-64
2023/07/21 05:32:25;;;;;;;2.60;2.40;;;;;;;19.52;100.00;99893.02;91129;1271;139373;-64
2023/07/21 05:34:36;;;;;;;4.50;3.00;;;;;;;19.44;100.00;99895.17;91233;1273;23188;-65
2023/07/21 05:36:39;;;;;;;6.80;2.90;;;;;;;19.38;100.00;99894.04;91032;1259;138552;-63
2023/07/21 05:38:41;;;;;;;2.20;2.10;;;;;;;19.35;100.00;99896.81;91248;1270;22300;-65
2023/07/21 05:40:43;;;;;;;3.90;2.10;;;;;;;19.30;100.00;99897.05;91250;1267;138962;-67
2023/07/21 05:42:48;;;;;;;3.90;2.00;;;;;;;19.22;100.00;99899.14;91162;1273;22962;-63
2023/07/21 05:44:50;;;;;;;3.20;2.90;;;;;;;19.12;100.00;99904.55;91164;1275;138218;-65
2023/07/21 05:46:52;;;;;;;3.30;2.60;;;;;;;19.02;100.00;99899.29;91189;1275;23030;-65
2023/07/21 05:48:54;;;;;;;2.10;2.00;;;;;;;18.86;100.00;99890.89;91150;1270;138753;-64
2023/07/21 05:50:55;;;;;;;3.10;2.00;;;;;;;18.78;100.00;99893.86;91219;1275;22318;-64
2023/07/21 05:52:57;;;;;;;3.10;1.90;;;;;;;18.80;100.00;99903.79;90986;1273;139681;-63
2023/07/21 05:55:03;;;;;;;3.10;2.70;;;;;;;18.73;100.00;99908.02;91208;1275;22305;-64
2023/07/21 05:57:06;;;;;;;2.10;2.00;;;;;;;18.66;100.00;99907.34;91091;1271;139375;-64
2023/07/21 05:59:11;;;;;;;3.40;2.00;;;;;;;18.60;100.00;99908.23;91200;1268;23057;-65
2023/07/21 06:01:13;;;;;;;2.10;1.80;;;;;;;18.53;100.00;99908.64;91016;1270;139894;-64
2023/07/21 06:03:15;;;;;;;3.40;2.30;;;;;;;18.49;100.00;99907.40;91254;1273;22370;-65
2023/07/21 06:05:18;;;;;;;2.80;2.60;;;;;;;18.50;100.00;99905.47;91258;1270;139000;-64
2023/07/21 06:07:43;;;;;;;10.40;9.50;;;;;;;18.55;100.00;99913.41;91220;1272;22405;-63
2023/07/21 06:09:49;;;;;;;3.00;2.70;;;;;;;18.52;100.00;99904.80;91238;1271;138815;-64
2023/07/21 06:12:09;;;;;;;7.40;6.10;;;;;;;18.63;100.00;99921.77;91174;1272;141366;-64
2023/07/21 06:14:18;;;;;;;3.20;3.00;;;;;;;18.64;100.00;99922.70;91122;1278;22475;-63
2023/07/21 06:16:43;;;;;;;4.80;2.30;;;;;;;18.64;100.00;99930.46;91179;1269;138028;-64
2023/07/21 06:18:45;;;;;;;2.90;2.80;;;;;;;18.63;100.00;99928.52;91168;1260;22392;-63
2023/07/21 06:20:50;;;;;;;3.50;2.30;;;;;;;18.61;100.00;99924.23;91048;1264;140188;-64
2023/07/21 06:22:52;;;;;;;2.10;2.00;;;;;;;18.60;100.00;99927.14;91177;1274;23071;-63
2023/07/21 06:24:55;;;;;;;2.10;1.90;;;;;;;18.57;100.00;99927.42;91099;1276;138470;-63
2023/07/21 06:26:58;;;;;;;2.00;1.90;;;;;;;18.57;100.00;99926.67;91234;1270;22475;-64
2023/07/21 06:29:00;;;;;;;3.00;2.80;;;;;;;18.57;100.00;99930.92;91038;1263;139225;-64
2023/07/21 06:31:02;;;;;;;1.90;1.80;;;;;;;18.55;100.00;99932.30;91171;1258;22189;-64
2023/07/21 06:33:18;;;;;;;2.80;1.80;;;;;;;18.56;100.00;99935.29;91026;1271;139763;-65
2023/07/21 06:35:25;;;;;;;3.70;2.10;;;;;;;18.54;100.00;99921.82;91198;1270;22268;-64
2023/07/21 06:37:40;;;;;;;3.40;2.10;;;;;;;18.67;100.00;99934.61;91152;1271;137948;-64
2023/07/21 06:39:55;;;;;;;2.70;2.20;;;;;;;18.70;100.00;99934.06;91124;1271;22495;-64
2023/07/21 06:42:23;;;;;;;1.70;1.60;;;;;;;18.78;100.00;99938.21;91233;1268;23024;-64
2023/07/21 06:44:44;;;;;;;1.50;1.20;;;;;;;18.89;100.00;99935.50;91232;1268;138080;-63
2023/07/21 06:46:57;;;;;;;1.80;1.70;;;;;;;18.99;100.00;99936.85;91171;1275;22451;-64
2023/07/21 06:49:23;;;;;;;2.20;2.00;;;;;;;19.08;100.00;99942.13;91117;1270;139461;-64
2023/07/21 06:51:32;;;;;;;4.90;2.20;;;;;;;19.17;100.00;99945.13;91142;1270;22349;-64
2023/07/21 06:53:34;;;;;;;3.80;2.10;;;;;;;19.29;100.00;99942.27;91258;1275;139047;-65
2023/07/21 06:55:37;;;;;;;1.30;1.20;;;;;;;19.43;100.00;99946.29;91214;1266;22386;-64
2023/07/21 06:57:41;;;;;;;1.90;1.80;;;;;;;19.52;100.00;99948.37;91036;1276;140587;-63
2023/07/21 06:59:44;;;;;;;1.70;1.60;;;;;;;19.58;100.00;99950.96;91217;1269;22143;-64
2023/07/21 07:01:46;;;;;;;1.20;1.10;;;;;;;19.68;100.00;99950.78;91148;1254;138294;-63
2023/07/21 07:03:48;;;;;;;1.90;1.70;;;;;;;19.85;100.00;99951.81;91356;1257;22322;-64
2023/07/21 07:05:49;;;;;;;1.60;1.50;;;;;;;20.01;100.00;99957.49;91104;1270;139389;-63
2023/07/21 07:07:53;;;;;;;1.50;1.10;;;;;;;20.15;100.00;99957.92;91208;1270;22303;-65
2023/07/21 07:09:55;;;;;;;5.40;1.60;;;;;;;20.20;100.00;99960.80;91275;1271;137846;-65
2023/07/21 07:11:57;;;;;;;1.50;1.40;;;;;;;20.17;100.00;99958.73;91116;1272;22320;-65
2023/07/21 07:13:58;;;;;;;2.70;2.40;;;;;;;20.14;100.00;99958.45;91219;1270;138807;-64
2023/07/21 07:16:00;;;;;;;2.30;1.70;;;;;;;20.16;100.00;99960.41;91346;1270;22788;-65
2023/07/21 07:18:03;;;;;;;2.80;1.80;;;;;;;20.19;100.00;99958.31;91246;1270;137827;-64
2023/07/21 07:20:09;;;;;;;1.80;1.50;;;;;;;20.22;100.00;99956.38;91210;1268;139356;-66
2023/07/21 07:22:13;;;;;;;1.80;1.20;;;;;;;20.29;100.00;99952.09;91376;1266;22343;-65
2023/07/21 07:24:14;;;;;;;3.20;1.00;;;;;;;20.31;100.00;99947.08;91214;1270;137985;-65
2023/07/21 07:26:17;;;;;;;1.20;1.10;;;;;;;20.37;100.00;99947.54;91095;1269;22201;-63
2023/07/21 07:28:20;;;;;;;4.10;1.40;;;;;;;20.48;100.00;99948.73;91045;1259;138809;-64
2023/07/21 07:30:22;;;;;;;2.90;1.50;;;;;;;20.62;99.25;99944.76;91094;1272;22314;-64
2023/07/21 07:32:23;;;;;;;3.60;1.40;;;;;;;20.77;99.63;99946.17;91156;1271;137228;-66
2023/07/21 07:34:26;;;;;;;1.70;1.30;;;;;;;21.01;98.89;99944.56;91331;1273;22939;-66
2023/07/21 07:36:28;;;;;;;1.00;0.90;;;;;;;21.29;97.00;99944.72;91164;1273;137889;-65
2023/07/21 07:38:32;;;;;;;3.60;1.60;;;;;;;21.47;94.56;99946.45;91122;1270;22782;-66
2023/07/21 07:40:34;;;;;;;1.70;0.80;;;;;;;21.51;93.89;99949.70;91210;1270;138745;-65
2023/07/21 07:42:36;;;;;;;1.50;1.00;;;;;;;21.52;94.12;99945.48;91333;1269;22140;-65
2023/07/21 07:44:39;;;;;;;2.60;1.10;;;;;;;21.61;93.64;99948.41;91187;1269;137112;-66
2023/07/21 07:46:41;;;;;;;4.30;1.00;;;;;;;21.67;93.32;99945.70;91264;1269;22332;-65
2023/07/21 07:48:45;;;;;;;2.00;1.40;;;;;;;21.67;92.74;99941.90;91101;1270;137107;-65
2023/07/21 07:50:46;;;;;;;1.30;1.00;;;;;;;21.58;93.44;99948.20;91270;1270;22389;-66
2023/07/21 07:52:49;;;;;;;3.60;1.50;;;;;;;21.46;95.26;99939.19;91010;1273;137028;-64
2023/07/21 07:54:51;;;;;;;2.50;0.70;;;;;;;21.53;93.09;99950.21;91278;1270;23091;-68
2023/07/21 07:56:53;;;;;;;1.10;0.90;;;;;;;21.56;91.00;99950.54;91165;1270;139927;-65
2023/07/21 07:58:55;;;;;;;1.60;0.40;;;;;;;21.57;91.24;99950.36;91217;1270;22169;-63
2023/07/21 08:00:58;;;;;;;2.10;1.40;;;;;;;21.55;90.99;99952.86;91216;1270;138775;-66
2023/07/21 08:03:04;;;;;;;2.70;1.10;;;;;;;21.44;92.14;99955.33;91256;1270;22863;-66
2023/07/21 08:05:07;;;;;;;1.30;1.10;;;;;;;21.36;93.60;99959.63;91186;1270;138244;-65
2023/07/21 08:07:08;;;;;;;7.40;1.40;;;;;;;21.39;93.42;99958.18;91218;1270;22357;-65
2023/07/21 08:09:10;;;;;;;3.80;0.60;;;;;;;21.44;93.60;99959.24;91130;1269;137984;-65
2023/07/21 08:11:12;;;;;;;2.80;0.90;;;;;;;21.48;93.36;99959.74;91269;1270;22188;-66
2023/07/21 08:13:13;;;;;;;3.30;1.30;;;;;;;21.53;92.87;99956.98;91246;1260;138239;-65
2023/07/21 08:15:15;;;;;;;1.70;0.90;;;;;;;21.59;92.90;99959.05;91286;1273;22209;-65
2023/07/21 08:17:17;;;;;;;1.60;1.10;;;;;;;21.62;93.14;99959.65;91190;1269;138538;-64
2023/07/21 08:19:19;;;;;;;1.20;1.10;;;;;;;21.62;92.61;99958.02;91303;1268;23117;-65
2023/07/21 08:21:24;;;;;;;2.10;1.40;;;;;;;21.64;93.17;99957.26;91146;1270;138533;-65
2023/07/21 08:23:26;;;;;;;2.40;1.10;;;;;;;21.70;92.63;99956.66;91412;1270;22302;-65
2023/07/21 08:25:31;;;;;;;1.70;0.60;;;;;;;21.77;90.76;99961.77;91267;1268;139631;-65
2023/07/21 08:27:35;;;;;;;0.40;0.40;;;;;;;21.78;90.05;99961.71;91310;1274;22100;-65
2023/07/21 08:29:37;;;;;;;0.90;0.40;;;;;;;21.77;89.95;99963.11;91275;1268;138953;-65
2023/07/21 08:31:38;;;;;;;0.60;0.50;;;;;;;21.82;87.43;99966.31;91260;1260;22216;-66
2023/07/21 08:33:40;;;;;;;1.90;0.70;;;;;;;21.86;86.66;99970.22;91050;1270;138677;-66
2023/07/21 08:35:43;;;;;;;1.00;0.30;;;;;;;21.91;86.32;99972.66;91382;1268;22135;-66
2023/07/21 08:37:45;;;;;;;0.30;0.30;;;;;;;21.97;85.12;99971.45;91102;1270;138990;-65
2023/07/21 08:39:47;;;;;;;0.60;0.30;;;;;;;22.01;83.12;99972.43;91329;1267;22648;-66
2023/07/21 08:41:50;;;;;;;0.60;0.40;;;;;;;22.02;83.67;99971.40;90991;1270;137057;-64
2023/07/21 08:43:54;;;;;;;2.50;0.20;;;;;;;22.03;84.88;99968.63;91378;1269;22855;-67
2023/07/21 08:45:59;;;;;;;1.00;0.30;;;;;;;22.03;83.53;99968.79;91222;1270;136881;-67
2023/07/21 08:48:06;;;;;;;2.20;0.30;;;;;;;22.01;81.44;99964.52;91178;1271;22351;-66
2023/07/21 08:50:08;;;;;;;4.20;0.50;;;;;;;22.00;81.84;99967.61;91252;1270;22154;-64
2023/07/21 08:52:10;;;;;;;4.70;0.60;;;;;;;22.05;80.11;99970.42;91251;1269;138940;-66
2023/07/21 08:54:12;;;;;;;2.90;0.20;;;;;;;22.13;78.70;99969.16;91327;1269;22236;-66
2023/07/21 08:56:14;;;;;;;0.30;0.10;;;;;;;22.21;78.73;99973.33;91218;1268;137454;-66
2023/07/21 08:58:15;;;;;;;0.40;0.10;;;;;;;22.31;77.49;99974.09;91337;1269;22202;-66
2023/07/21 09:00:21;;;;;;;0.60;0.20;;;;;;;22.39;76.72;99973.86;91237;1272;137313;-66
2023/07/21 09:02:41;;;;;;;0.70;0.30;;;;;;;22.41;77.82;99973.15;91356;1270;22382;-64
2023/07/21 09:04:45;;;;;;;0.20;0.20;;;;;;;22.40;76.72;99963.88;91274;1268;137518;-65
2023/07/21 09:06:52;;;;;;;0.90;0.20;;;;;;;22.40;76.45;99965.98;91187;1271;22915;-66
2023/07/21 09:08:54;;;;;;;0.70;0.10;;;;;;;22.44;76.40;99972.21;91217;1270;138205;-66
2023/07/21 09:11:00;;;;;;;0.10;0.10;;;;;;;22.49;76.21;99971.16;91348;1269;22211;-65
2023/07/21 09:13:04;;;;;;;0.60;0.20;;;;;;;22.57;75.14;99964.78;91242;1269;137637;-67
2023/07/21 09:15:07;;;;;;;0.40;0.20;;;;;;;22.67;74.29;99969.67;91329;1270;22392;-66
2023/07/21 09:17:11;;;;;;;1.10;0.20;;;;;;;22.65;73.04;99955.63;91222;1270;137520;-67
2023/07/21 09:19:19;;;;;;;0.80;0.20;;;;;;;22.73;72.60;99967.49;91356;1268;22313;-66
2023/07/21 09:21:23;;;;;;;0.70;0.30;;;;;;;22.69;72.78;99972.77;91240;1270;137646;-66
2023/07/21 09:23:26;;;;;;;2.90;0.30;;;;;;;22.69;74.30;99973.21;91241;1270;22296;-66
2023/07/21 09:25:28;;;;;;;1.40;0.20;;;;;;;22.74;74.30;99974.05;91177;1270;137993;-66
2023/07/21 09:27:30;;;;;;;0.90;0.10;;;;;;;22.77;73.88;99975.90;91208;1263;22317;-66
2023/07/21 09:31:51;;;;;;;1.30;0.10;;;;;;;22.70;72.73;99970.71;86068;1299;545668;-68
2023/07/21 09:33:54;;;;;;;1.60;0.30;;;;;;;22.72;72.61;99968.95;87282;1285;136813;-66
2023/07/21 09:36:04;;;;;;;1.40;0.20;;;;;;;22.76;72.62;99964.49;87790;1278;22644;-67
2023/07/21 09:38:11;;;;;;;0.90;0.40;;;;;;;22.76;72.62;99961.13;87590;1283;22556;-64
2023/07/21 09:40:14;;;;;;;0.20;0.20;;;;;;;22.75;72.13;99962.87;87600;1281;136782;-65